sensor_id;sensor_type;location;lat;lon;timestamp;temperature;humidity
57624;SHT30;43448;52.264;20.644;2023-04-09T00:00:01;24.93;35.80
57624;SHT30;43448;52.264;20.644;2023-04-09T00:10:01;24.91;35.79
57624;SHT30;43448;52.264;20.644;2023-04-09T00:20:01;24.90;35.78
57624;SHT30;43448;52.264;20.644;2023-04-09T00:30:01;24.91;35.77
57624;SHT30;43448;52.264;20.644;2023-04-09T00:40:01;24.88;35.77
57624;SHT30;43448;52.264;20.644;2023-04-09T00:50:01;24.88;35.73
57624;SHT30;43448;52.264;20.644;2023-04-09T01:00:01;24.87;35.72
57624;SHT30;43448;52.264;20.644;2023-04-09T01:10:08;24.87;35.88
57624;SHT30;43448;52.264;20.644;2023-04-09T01:20:03;24.84;35.96
57624;SHT30;43448;52.264;20.644;2023-04-09T01:30:03;24.81;35.93
57624;SHT30;43448;52.264;20.644;2023-04-09T01:40:01;24.83;35.95
57624;SHT30;43448;52.264;20.644;2023-04-09T01:50:01;24.84;35.92
57624;SHT30;43448;52.264;20.644;2023-04-09T02:00:01;24.81;35.96
57624;SHT30;43448;52.264;20.644;2023-04-09T02:10:01;24.80;35.99
57624;SHT30;43448;52.264;20.644;2023-04-09T02:20:01;24.79;35.90
57624;SHT30;43448;52.264;20.644;2023-04-09T02:30:01;24.77;35.90
57624;SHT30;43448;52.264;20.644;2023-04-09T02:40:01;24.79;35.94
57624;SHT30;43448;52.264;20.644;2023-04-09T02:50:01;24.77;35.94
57624;SHT30;43448;52.264;20.644;2023-04-09T03:00:01;24.76;35.91
57624;SHT30;43448;52.264;20.644;2023-04-09T03:10:01;24.74;35.95
57624;SHT30;43448;52.264;20.644;2023-04-09T03:20:01;24.71;35.91
57624;SHT30;43448;52.264;20.644;2023-04-09T03:30:01;24.70;35.83
57624;SHT30;43448;52.264;20.644;2023-04-09T03:40:01;24.67;35.86
57624;SHT30;43448;52.264;20.644;2023-04-09T03:50:01;24.71;35.78
57624;SHT30;43448;52.264;20.644;2023-04-09T04:00:01;24.69;35.80
57624;SHT30;43448;52.264;20.644;2023-04-09T04:10:02;24.67;35.79
57624;SHT30;43448;52.264;20.644;2023-04-09T04:20:01;24.67;35.71
57624;SHT30;43448;52.264;20.644;2023-04-09T04:30:01;24.70;35.57
57624;SHT30;43448;52.264;20.644;2023-04-09T04:40:01;24.67;35.42
57624;SHT30;43448;52.264;20.644;2023-04-09T04:50:01;24.67;35.39
57624;SHT30;43448;52.264;20.644;2023-04-09T05:00:01;24.70;35.75
57624;SHT30;43448;52.264;20.644;2023-04-09T05:10:01;24.63;36.15
57624;SHT30;43448;52.264;20.644;2023-04-09T05:20:01;24.64;36.82
57624;SHT30;43448;52.264;20.644;2023-04-09T05:30:01;24.67;36.88
57624;SHT30;43448;52.264;20.644;2023-04-09T05:40:01;24.70;36.68
57624;SHT30;43448;52.264;20.644;2023-04-09T05:50:01;24.67;36.60
57624;SHT30;43448;52.264;20.644;2023-04-09T06:00:01;24.67;36.55
57624;SHT30;43448;52.264;20.644;2023-04-09T06:10:01;24.69;36.59
57624;SHT30;43448;52.264;20.644;2023-04-09T06:20:01;24.67;36.56
57624;SHT30;43448;52.264;20.644;2023-04-09T06:30:01;24.73;36.60
57624;SHT30;43448;52.264;20.644;2023-04-09T06:40:01;24.69;36.74
57624;SHT30;43448;52.264;20.644;2023-04-09T06:50:01;24.71;36.78
57624;SHT30;43448;52.264;20.644;2023-04-09T07:00:01;24.73;36.67
57624;SHT30;43448;52.264;20.644;2023-04-09T07:10:01;24.74;36.68
57624;SHT30;43448;52.264;20.644;2023-04-09T07:20:01;24.76;37.72
57624;SHT30;43448;52.264;20.644;2023-04-09T07:30:01;24.80;37.70
57624;SHT30;43448;52.264;20.644;2023-04-09T07:40:01;24.77;37.63
57624;SHT30;43448;52.264;20.644;2023-04-09T07:50:01;24.80;37.46
57624;SHT30;43448;52.264;20.644;2023-04-09T08:00:01;24.80;37.57
57624;SHT30;43448;52.264;20.644;2023-04-09T08:10:01;24.77;37.53
57624;SHT30;43448;52.264;20.644;2023-04-09T08:20:01;24.79;37.66
57624;SHT30;43448;52.264;20.644;2023-04-09T08:30:01;24.81;37.58
57624;SHT30;43448;52.264;20.644;2023-04-09T08:40:01;25.13;36.98
57624;SHT30;43448;52.264;20.644;2023-04-09T08:50:01;25.34;36.55
57624;SHT30;43448;52.264;20.644;2023-04-09T09:00:01;25.49;36.25
57624;SHT30;43448;52.264;20.644;2023-04-09T09:10:01;25.58;36.00
57624;SHT30;43448;52.264;20.644;2023-04-09T09:20:18;25.65;35.78
57624;SHT30;43448;52.264;20.644;2023-04-09T09:30:01;25.73;35.73
57624;SHT30;43448;52.264;20.644;2023-04-09T09:40:01;25.75;35.58
57624;SHT30;43448;52.264;20.644;2023-04-09T09:50:01;25.79;35.54
57624;SHT30;43448;52.264;20.644;2023-04-09T10:00:02;25.82;35.41
57624;SHT30;43448;52.264;20.644;2023-04-09T10:10:01;25.80;35.44
57624;SHT30;43448;52.264;20.644;2023-04-09T10:20:09;25.85;35.40
57624;SHT30;43448;52.264;20.644;2023-04-09T10:30:01;25.85;35.46
57624;SHT30;43448;52.264;20.644;2023-04-09T10:40:02;25.89;35.61
57624;SHT30;43448;52.264;20.644;2023-04-09T10:50:18;25.89;35.98
57624;SHT30;43448;52.264;20.644;2023-04-09T11:00:01;25.92;35.89
57624;SHT30;43448;52.264;20.644;2023-04-09T11:10:01;25.97;36.12
57624;SHT30;43448;52.264;20.644;2023-04-09T11:20:01;25.99;36.10
57624;SHT30;43448;52.264;20.644;2023-04-09T11:30:01;25.97;36.23
57624;SHT30;43448;52.264;20.644;2023-04-09T11:40:01;25.99;36.32
57624;SHT30;43448;52.264;20.644;2023-04-09T11:50:01;26.03;36.43
57624;SHT30;43448;52.264;20.644;2023-04-09T12:00:05;26.04;36.47
57624;SHT30;43448;52.264;20.644;2023-04-09T12:10:03;26.08;36.57
57624;SHT30;43448;52.264;20.644;2023-04-09T12:20:01;26.13;36.57
57624;SHT30;43448;52.264;20.644;2023-04-09T12:30:01;26.14;36.51
57624;SHT30;43448;52.264;20.644;2023-04-09T12:40:01;26.14;36.29
57624;SHT30;43448;52.264;20.644;2023-04-09T12:50:01;26.14;36.17
57624;SHT30;43448;52.264;20.644;2023-04-09T13:00:01;26.21;36.11
57624;SHT30;43448;52.264;20.644;2023-04-09T13:10:01;26.26;35.86
57624;SHT30;43448;52.264;20.644;2023-04-09T13:20:01;26.28;35.75
57624;SHT30;43448;52.264;20.644;2023-04-09T13:30:01;26.30;35.53
57624;SHT30;43448;52.264;20.644;2023-04-09T13:40:01;26.33;35.48
57624;SHT30;43448;52.264;20.644;2023-04-09T13:50:01;26.41;35.38
57624;SHT30;43448;52.264;20.644;2023-04-09T14:00:01;26.37;35.23
57624;SHT30;43448;52.264;20.644;2023-04-09T14:10:01;26.38;35.58
57624;SHT30;43448;52.264;20.644;2023-04-09T14:20:01;26.40;36.23
57624;SHT30;43448;52.264;20.644;2023-04-09T14:30:01;26.38;37.01
57624;SHT30;43448;52.264;20.644;2023-04-09T14:40:01;26.40;37.73
57624;SHT30;43448;52.264;20.644;2023-04-09T14:50:01;26.40;38.00
57624;SHT30;43448;52.264;20.644;2023-04-09T15:00:01;26.38;37.88
57624;SHT30;43448;52.264;20.644;2023-04-09T15:10:01;26.38;37.94
57624;SHT30;43448;52.264;20.644;2023-04-09T15:20:01;26.35;37.95
57624;SHT30;43448;52.264;20.644;2023-04-09T15:30:01;26.34;38.11
57624;SHT30;43448;52.264;20.644;2023-04-09T15:40:01;26.34;38.38
57624;SHT30;43448;52.264;20.644;2023-04-09T15:50:01;26.31;38.33
57624;SHT30;43448;52.264;20.644;2023-04-09T16:00:01;26.31;38.60
57624;SHT30;43448;52.264;20.644;2023-04-09T16:10:01;26.31;38.60
57624;SHT30;43448;52.264;20.644;2023-04-09T16:20:01;26.30;38.72
57624;SHT30;43448;52.264;20.644;2023-04-09T16:30:01;26.30;38.77
57624;SHT30;43448;52.264;20.644;2023-04-09T16:40:01;26.33;38.89
57624;SHT30;43448;52.264;20.644;2023-04-09T16:50:01;26.31;38.96
57624;SHT30;43448;52.264;20.644;2023-04-09T17:00:01;26.28;39.21
57624;SHT30;43448;52.264;20.644;2023-04-09T17:10:01;26.26;39.21
57624;SHT30;43448;52.264;20.644;2023-04-09T17:20:01;26.30;39.08
57624;SHT30;43448;52.264;20.644;2023-04-09T17:30:01;26.33;38.82
57624;SHT30;43448;52.264;20.644;2023-04-09T17:40:01;26.35;38.61
57624;SHT30;43448;52.264;20.644;2023-04-09T17:50:01;26.35;38.64
57624;SHT30;43448;52.264;20.644;2023-04-09T18:00:02;26.38;38.59
57624;SHT30;43448;52.264;20.644;2023-04-09T18:10:01;26.34;38.60
57624;SHT30;43448;52.264;20.644;2023-04-09T18:20:01;26.34;38.52
57624;SHT30;43448;52.264;20.644;2023-04-09T18:30:01;26.30;38.46
57624;SHT30;43448;52.264;20.644;2023-04-09T18:40:01;26.28;38.43
57624;SHT30;43448;52.264;20.644;2023-04-09T18:50:01;26.24;38.38
57624;SHT30;43448;52.264;20.644;2023-04-09T19:00:01;26.24;38.25
57624;SHT30;43448;52.264;20.644;2023-04-09T19:10:01;26.20;38.34
57624;SHT30;43448;52.264;20.644;2023-04-09T19:20:01;26.19;38.30
57624;SHT30;43448;52.264;20.644;2023-04-09T19:30:01;26.17;38.29
57624;SHT30;43448;52.264;20.644;2023-04-09T19:40:01;26.19;38.20
57624;SHT30;43448;52.264;20.644;2023-04-09T19:50:01;26.14;38.20
57624;SHT30;43448;52.264;20.644;2023-04-09T20:00:01;26.13;38.12
57624;SHT30;43448;52.264;20.644;2023-04-09T20:10:01;26.13;38.02
57624;SHT30;43448;52.264;20.644;2023-04-09T20:20:01;26.10;38.00
57624;SHT30;43448;52.264;20.644;2023-04-09T20:30:01;26.07;38.03
57624;SHT30;43448;52.264;20.644;2023-04-09T20:40:01;26.06;37.98
57624;SHT30;43448;52.264;20.644;2023-04-09T20:50:01;26.08;37.97
57624;SHT30;43448;52.264;20.644;2023-04-09T21:00:01;26.04;37.97
57624;SHT30;43448;52.264;20.644;2023-04-09T21:10:01;26.06;37.90
57624;SHT30;43448;52.264;20.644;2023-04-09T21:20:01;26.00;37.89
57624;SHT30;43448;52.264;20.644;2023-04-09T21:30:01;26.03;37.82
57624;SHT30;43448;52.264;20.644;2023-04-09T21:40:01;25.99;38.17
57624;SHT30;43448;52.264;20.644;2023-04-09T21:50:02;26.00;38.17
57624;SHT30;43448;52.264;20.644;2023-04-09T22:00:01;26.01;37.98
57624;SHT30;43448;52.264;20.644;2023-04-09T22:10:01;25.99;37.86
57624;SHT30;43448;52.264;20.644;2023-04-09T22:20:01;25.99;37.83
57624;SHT30;43448;52.264;20.644;2023-04-09T22:30:03;25.96;37.70
57624;SHT30;43448;52.264;20.644;2023-04-09T22:40:01;25.95;37.59
57624;SHT30;43448;52.264;20.644;2023-04-09T22:50:01;25.95;37.42
57624;SHT30;43448;52.264;20.644;2023-04-09T23:00:01;25.96;37.33
57624;SHT30;43448;52.264;20.644;2023-04-09T23:10:01;25.92;37.47
57624;SHT30;43448;52.264;20.644;2023-04-09T23:20:01;25.93;37.40
57624;SHT30;43448;52.264;20.644;2023-04-09T23:30:01;25.93;37.21
57624;SHT30;43448;52.264;20.644;2023-04-09T23:40:01;25.90;37.10
57624;SHT30;43448;52.264;20.644;2023-04-09T23:50:01;25.90;36.91
